Time;durP1;ratioP1;P1;durP2;ratioP2;P2;SDS_P1;SDS_P2;PMS_P1;PMS_P2;Temp;Humidity;BMP_temperature;BMP_pressure;BME280_temperature;BME280_humidity;BME280_pressure;Samples;Min_cycle;Max_cycle;Signal;HPM_P1;HPM_P2
2023/08/04 00:00:23;;;;;;;0.00;0.00;;;15.80;99.90;;;;;;5092793;28;20620;-62
2023/08/04 00:02:48;;;;;;;0.00;0.00;;;15.90;99.90;;;;;;5093103;28;20212;-62
2023/08/04 00:05:14;;;;;;;0.00;0.00;;;15.90;99.90;;;;;;5093001;28;20651;-62
2023/08/04 00:07:43;;;;;;;0.00;0.00;;;15.90;99.90;;;;;;5093316;28;20207;-63
2023/08/04 00:10:09;;;;;;;0.00;0.00;;;15.90;99.90;;;;;;5093016;28;20260;-63
2023/08/04 00:12:34;;;;;;;0.00;0.00;;;16.00;99.90;;;;;;5093142;28;20188;-62
2023/08/04 00:15:00;;;;;;;0.00;0.00;;;16.00;99.90;;;;;;5092347;28;20173;-62
2023/08/04 00:17:26;;;;;;;0.00;0.00;;;16.00;99.90;;;;;;5092510;28;20184;-62
2023/08/04 00:19:52;;;;;;;0.00;0.00;;;16.00;99.90;;;;;;5092785;28;20661;-63
2023/08/04 00:22:17;;;;;;;0.00;0.00;;;16.10;99.90;;;;;;5092728;28;20215;-63
2023/08/04 00:24:43;;;;;;;0.00;0.00;;;16.10;99.90;;;;;;5092563;28;20270;-63
2023/08/04 00:27:08;;;;;;;0.00;0.00;;;16.10;99.90;;;;;;5092231;28;20172;-62
2023/08/04 00:29:35;;;;;;;0.10;0.10;;;16.10;99.90;;;;;;5091232;28;20254;-62
2023/08/04 00:32:00;;;;;;;0.00;0.00;;;16.10;99.90;;;;;;5091475;28;20192;-62
2023/08/04 00:34:26;;;;;;;0.00;0.00;;;16.10;99.90;;;;;;5092573;28;20191;-62
2023/08/04 00:36:51;;;;;;;0.00;0.00;;;16.10;99.90;;;;;;5091589;28;20184;-63
2023/08/04 00:39:17;;;;;;;0.00;0.00;;;16.10;99.90;;;;;;5088443;28;20184;-63
2023/08/04 00:41:43;;;;;;;0.00;0.00;;;16.20;99.90;;;;;;5092462;28;20215;-63
2023/08/04 00:44:09;;;;;;;0.00;0.00;;;16.10;99.90;;;;;;5084837;28;20728;-62
2023/08/04 00:46:36;;;;;;;0.00;0.00;;;16.20;99.90;;;;;;5087357;28;20210;-62
2023/08/04 00:49:03;;;;;;;0.00;0.00;;;16.10;99.90;;;;;;5091970;28;20173;-63
2023/08/04 00:51:31;;;;;;;0.00;0.00;;;16.20;99.90;;;;;;5092200;28;20183;-63
2023/08/04 00:53:57;;;;;;;0.00;0.00;;;16.10;99.90;;;;;;5092067;28;20339;-62
2023/08/04 00:56:22;;;;;;;0.00;0.00;;;16.10;99.90;;;;;;5092181;28;20703;-63
2023/08/04 00:58:48;;;;;;;0.00;0.00;;;16.10;99.90;;;;;;5092104;28;20588;-62
2023/08/04 01:01:14;;;;;;;0.10;0.10;;;16.10;99.90;;;;;;5092145;28;20282;-62
2023/08/04 01:03:40;;;;;;;0.00;0.00;;;16.10;99.90;;;;;;5091508;28;20221;-62
2023/08/04 01:06:31;;;;;;;0.00;0.00;;;16.10;99.90;;;;;;5091582;28;20184;-62
2023/08/04 01:09:15;;;;;;;0.00;0.00;;;16.10;99.90;;;;;;5089268;28;20643;-62
2023/08/04 01:11:51;;;;;;;0.00;0.00;;;16.10;99.90;;;;;;5091487;28;20590;-62
2023/08/04 01:14:18;;;;;;;0.00;0.00;;;16.10;99.90;;;;;;5091209;28;20187;-62
2023/08/04 01:16:44;;;;;;;0.00;0.00;;;16.10;99.90;;;;;;5091598;28;20191;-62
2023/08/04 01:19:09;;;;;;;0.00;0.00;;;16.10;99.90;;;;;;5091309;28;20199;-62
2023/08/04 01:21:42;;;;;;;0.00;0.00;;;16.10;99.90;;;;;;5091834;28;20558;-62
2023/08/04 01:24:09;;;;;;;0.00;0.00;;;16.10;99.90;;;;;;5091709;28;20203;-62
2023/08/04 01:26:40;;;;;;;0.00;0.00;;;16.10;99.90;;;;;;5091102;28;20184;-62
2023/08/04 01:29:07;;;;;;;0.00;0.00;;;16.10;99.90;;;;;;5091348;28;20228;-62
2023/08/04 01:31:33;;;;;;;0.00;0.00;;;16.10;99.90;;;;;;5091724;28;20172;-62
2023/08/04 01:33:59;;;;;;;0.00;0.00;;;16.10;99.90;;;;;;5091173;28;20182;-63
2023/08/04 01:36:25;;;;;;;0.00;0.00;;;16.10;99.90;;;;;;5091438;28;20179;-63
2023/08/04 01:38:50;;;;;;;0.00;0.00;;;16.00;99.90;;;;;;5091647;28;20176;-62
2023/08/04 01:41:16;;;;;;;0.00;0.00;;;15.90;99.90;;;;;;5090312;28;20211;-62
2023/08/04 01:43:41;;;;;;;0.00;0.00;;;15.90;99.90;;;;;;5093764;28;20268;-63
2023/08/04 01:46:07;;;;;;;0.00;0.00;;;15.90;99.90;;;;;;5091440;28;20227;-63
2023/08/04 01:48:33;;;;;;;0.00;0.00;;;15.90;99.90;;;;;;5090984;28;20168;-62
2023/08/04 01:50:58;;;;;;;0.00;0.00;;;15.90;99.90;;;;;;5090465;28;20256;-62
2023/08/04 01:53:24;;;;;;;0.00;0.00;;;15.90;99.90;;;;;;5089967;28;20184;-62
2023/08/04 01:55:49;;;;;;;0.00;0.00;;;15.90;99.90;;;;;;5091499;28;20164;-62
2023/08/04 01:58:15;;;;;;;0.00;0.00;;;15.90;99.90;;;;;;5091173;28;20660;-62
2023/08/04 02:00:41;;;;;;;0.00;0.00;;;15.90;99.90;;;;;;5091371;28;20176;-62
2023/08/04 02:03:06;;;;;;;0.00;0.00;;;15.90;99.90;;;;;;5091157;28;20658;-62
2023/08/04 02:05:32;;;;;;;0.00;0.00;;;15.80;99.90;;;;;;5091032;28;20549;-62
2023/08/04 02:07:57;;;;;;;0.00;0.00;;;15.80;99.90;;;;;;5091319;28;20527;-62
2023/08/04 02:10:23;;;;;;;0.00;0.00;;;15.80;99.90;;;;;;5090861;28;20187;-62
2023/08/04 02:12:48;;;;;;;0.00;0.00;;;15.80;99.90;;;;;;5091207;28;20666;-62
2023/08/04 02:15:14;;;;;;;0.00;0.00;;;15.80;99.90;;;;;;5091113;28;20628;-62
2023/08/04 02:17:40;;;;;;;0.00;0.00;;;15.80;99.90;;;;;;5091269;28;20504;-62
2023/08/04 02:20:06;;;;;;;0.00;0.00;;;15.80;99.90;;;;;;5090311;28;20172;-62
2023/08/04 02:22:31;;;;;;;0.00;0.00;;;15.80;99.90;;;;;;5091136;28;20244;-62
2023/08/04 02:24:57;;;;;;;0.00;0.00;;;15.90;99.90;;;;;;5091241;28;20173;-62
2023/08/04 02:27:22;;;;;;;0.00;0.00;;;15.90;99.90;;;;;;5091226;28;20172;-62
2023/08/04 02:29:48;;;;;;;0.00;0.00;;;15.90;99.90;;;;;;5090990;28;20725;-62
2023/08/04 02:32:13;;;;;;;0.00;0.00;;;15.90;99.90;;;;;;5090875;28;20388;-62
2023/08/04 02:34:39;;;;;;;0.00;0.00;;;15.90;99.90;;;;;;5090738;28;20188;-62
2023/08/04 02:37:04;;;;;;;0.00;0.00;;;15.90;99.90;;;;;;5090932;28;20210;-62
2023/08/04 02:39:33;;;;;;;0.00;0.00;;;15.90;99.90;;;;;;5093760;28;20512;-62
2023/08/04 02:41:59;;;;;;;0.00;0.00;;;16.00;99.90;;;;;;5094740;28;20255;-62
2023/08/04 02:44:24;;;;;;;0.00;0.00;;;15.90;99.90;;;;;;5094925;28;20231;-62
2023/08/04 02:46:50;;;;;;;0.00;0.00;;;15.90;99.90;;;;;;5092892;28;20180;-62
2023/08/04 02:49:16;;;;;;;0.00;0.00;;;16.00;99.90;;;;;;5094744;28;20309;-62
2023/08/04 02:51:42;;;;;;;0.00;0.00;;;15.90;99.90;;;;;;5094515;28;20176;-62
2023/08/04 02:54:09;;;;;;;0.00;0.00;;;15.90;99.90;;;;;;5094610;28;20189;-62
2023/08/04 02:56:35;;;;;;;0.00;0.00;;;15.90;99.90;;;;;;5094022;28;20191;-62
2023/08/04 02:59:01;;;;;;;0.00;0.00;;;15.90;99.90;;;;;;5094386;28;20634;-63
2023/08/04 03:01:26;;;;;;;0.00;0.00;;;15.90;99.90;;;;;;5093936;28;20204;-62
2023/08/04 03:03:52;;;;;;;0.00;0.00;;;15.90;99.90;;;;;;5094345;28;20229;-63
2023/08/04 03:06:17;;;;;;;0.00;0.00;;;15.90;99.90;;;;;;5094403;28;20176;-63
2023/08/04 03:08:43;;;;;;;0.00;0.00;;;15.90;99.90;;;;;;5094694;28;20635;-63
2023/08/04 03:11:11;;;;;;;0.00;0.00;;;15.90;99.90;;;;;;5094213;28;20208;-62
2023/08/04 03:13:38;;;;;;;0.00;0.00;;;15.80;99.90;;;;;;5094205;28;20538;-62
2023/08/04 03:16:04;;;;;;;0.00;0.00;;;15.80;99.90;;;;;;5094091;28;20187;-62
2023/08/04 03:18:29;;;;;;;0.00;0.00;;;15.80;99.90;;;;;;5094379;28;20933;-62
2023/08/04 03:20:55;;;;;;;0.00;0.00;;;15.80;99.90;;;;;;5092995;28;20247;-62
2023/08/04 03:23:21;;;;;;;0.00;0.00;;;15.80;99.90;;;;;;5094111;28;20180;-62
2023/08/04 03:25:47;;;;;;;0.00;0.00;;;15.80;99.90;;;;;;5094161;28;20176;-62
2023/08/04 03:28:13;;;;;;;0.00;0.00;;;15.90;99.90;;;;;;5093764;28;20226;-62
2023/08/04 03:30:39;;;;;;;0.00;0.00;;;15.90;99.90;;;;;;5093666;28;20184;-62
2023/08/04 03:33:04;;;;;;;0.00;0.00;;;15.90;99.90;;;;;;5093484;28;20662;-63
2023/08/04 03:35:30;;;;;;;0.00;0.00;;;15.90;99.90;;;;;;5093995;28;20180;-62
2023/08/04 03:37:55;;;;;;;0.00;0.00;;;15.90;99.90;;;;;;5093776;28;20622;-62
2023/08/04 03:40:21;;;;;;;0.00;0.00;;;15.90;99.90;;;;;;5093357;28;20183;-62
2023/08/04 03:42:47;;;;;;;0.00;0.00;;;15.90;99.90;;;;;;5093126;28;20704;-62
2023/08/04 03:45:13;;;;;;;0.00;0.00;;;15.90;99.90;;;;;;5090844;28;20191;-60
2023/08/04 03:47:38;;;;;;;0.00;0.00;;;15.90;99.90;;;;;;5093329;28;20184;-60
2023/08/04 03:50:05;;;;;;;0.00;0.00;;;15.90;99.90;;;;;;5091672;28;20188;-60
2023/08/04 03:52:32;;;;;;;0.00;0.00;;;16.00;99.90;;;;;;5093095;28;20210;-61
2023/08/04 03:54:57;;;;;;;0.00;0.00;;;15.90;99.90;;;;;;5093167;28;20181;-62
2023/08/04 03:57:23;;;;;;;0.13;0.13;;;15.90;99.90;;;;;;5092789;28;20184;-61
2023/08/04 03:59:51;;;;;;;0.00;0.00;;;15.90;99.90;;;;;;5092584;28;20545;-59
2023/08/04 04:02:16;;;;;;;0.00;0.00;;;15.90;99.90;;;;;;5092857;28;20223;-60
2023/08/04 04:04:42;;;;;;;0.00;0.00;;;15.80;99.90;;;;;;5093572;28;20191;-59
2023/08/04 04:07:07;;;;;;;0.00;0.00;;;15.70;99.90;;;;;;5092894;28;20711;-61
2023/08/04 04:09:33;;;;;;;0.00;0.00;;;15.70;99.90;;;;;;5092309;28;20575;-59
2023/08/04 04:11:58;;;;;;;0.00;0.00;;;15.60;99.90;;;;;;5107369;28;20648;-59
2023/08/04 04:14:24;;;;;;;0.00;0.00;;;15.60;99.90;;;;;;5092647;28;20199;-60
2023/08/04 04:16:49;;;;;;;0.00;0.00;;;15.60;99.90;;;;;;5092758;28;20650;-60
2023/08/04 04:19:15;;;;;;;0.00;0.00;;;15.50;99.90;;;;;;5092257;28;20176;-61
2023/08/04 04:21:40;;;;;;;0.00;0.00;;;15.50;99.90;;;;;;5092648;28;20574;-61
2023/08/04 04:24:06;;;;;;;0.00;0.00;;;15.40;99.90;;;;;;5092777;28;20605;-60
2023/08/04 04:26:31;;;;;;;0.00;0.00;;;15.50;99.90;;;;;;5092761;28;20186;-60
2023/08/04 04:28:57;;;;;;;1.48;0.15;;;15.50;99.90;;;;;;5092884;28;20216;-60
2023/08/04 04:31:22;;;;;;;0.00;0.00;;;15.50;99.90;;;;;;5092977;28;20263;-61
2023/08/04 04:33:48;;;;;;;0.00;0.00;;;15.50;99.90;;;;;;5092998;28;20187;-60
2023/08/04 04:36:13;;;;;;;0.00;0.00;;;15.50;99.90;;;;;;5092923;28;20256;-60
2023/08/04 04:38:39;;;;;;;0.00;0.00;;;15.40;99.90;;;;;;5092877;28;20608;-61
2023/08/04 04:41:04;;;;;;;0.00;0.00;;;15.40;99.90;;;;;;5092616;28;20196;-61
2023/08/04 04:43:30;;;;;;;0.00;0.00;;;15.50;99.90;;;;;;5092636;28;20172;-61
2023/08/04 04:45:56;;;;;;;0.00;0.00;;;15.50;99.90;;;;;;5092699;28;20501;-60
2023/08/04 04:48:23;;;;;;;0.00;0.00;;;15.60;99.90;;;;;;5092157;28;20274;-61
2023/08/04 04:50:50;;;;;;;0.00;0.00;;;15.60;99.90;;;;;;5092181;28;20179;-61
2023/08/04 04:53:16;;;;;;;0.00;0.00;;;15.70;99.90;;;;;;5092026;28;20215;-61
2023/08/04 04:55:42;;;;;;;0.00;0.00;;;15.80;99.90;;;;;;5092132;28;20680;-61
2023/08/04 04:58:07;;;;;;;0.00;0.00;;;15.90;99.90;;;;;;5091849;28;20226;-61
2023/08/04 05:00:34;;;;;;;0.00;0.00;;;15.90;99.90;;;;;;5091966;28;20176;-61
2023/08/04 05:03:08;;;;;;;0.00;0.00;;;15.90;99.90;;;;;;5091714;28;20303;-61
2023/08/04 05:05:35;;;;;;;0.00;0.00;;;16.00;99.90;;;;;;5092073;28;20205;-61
2023/08/04 05:08:00;;;;;;;0.00;0.00;;;16.10;99.90;;;;;;5091872;28;20180;-61
2023/08/04 05:10:26;;;;;;;0.00;0.00;;;16.20;99.90;;;;;;5091824;28;20179;-61
2023/08/04 05:12:52;;;;;;;0.00;0.00;;;16.20;99.90;;;;;;5091775;28;20200;-61
2023/08/04 05:15:18;;;;;;;0.00;0.00;;;16.20;99.90;;;;;;5091672;28;20647;-61
2023/08/04 05:17:44;;;;;;;0.00;0.00;;;16.40;99.90;;;;;;5091717;28;20215;-61
2023/08/04 05:20:11;;;;;;;0.00;0.00;;;16.40;99.90;;;;;;5091427;28;20180;-61
2023/08/04 05:22:36;;;;;;;0.00;0.00;;;16.40;99.90;;;;;;5091588;28;20222;-62
2023/08/04 05:25:03;;;;;;;0.00;0.00;;;16.50;99.90;;;;;;5091547;28;20172;-61
2023/08/04 05:27:28;;;;;;;0.00;0.00;;;16.60;99.90;;;;;;5091259;28;20191;-61
2023/08/04 05:29:54;;;;;;;0.00;0.00;;;16.70;99.90;;;;;;5091569;28;20183;-61
2023/08/04 05:32:19;;;;;;;0.00;0.00;;;16.80;99.90;;;;;;5091525;28;20279;-61
2023/08/04 05:34:45;;;;;;;0.00;0.00;;;16.90;99.90;;;;;;5091554;28;20247;-61
2023/08/04 05:37:10;;;;;;;0.00;0.00;;;17.00;99.90;;;;;;5091363;28;20180;-61
2023/08/04 05:39:36;;;;;;;0.00;0.00;;;17.10;99.90;;;;;;5091291;28;20176;-61
2023/08/04 05:42:01;;;;;;;0.00;0.00;;;17.20;99.90;;;;;;5091429;28;20215;-61
2023/08/04 05:44:28;;;;;;;0.00;0.00;;;17.20;99.90;;;;;;5091353;28;20172;-61
2023/08/04 05:46:54;;;;;;;0.00;0.00;;;17.10;99.90;;;;;;5091383;28;20176;-61
2023/08/04 05:49:19;;;;;;;0.00;0.00;;;17.00;99.90;;;;;;5071433;28;20189;-61
2023/08/04 05:51:45;;;;;;;0.00;0.00;;;16.90;99.90;;;;;;5073218;28;20176;-61
2023/08/04 05:54:11;;;;;;;0.00;0.00;;;16.90;99.90;;;;;;5091081;28;20172;-62
2023/08/04 05:56:37;;;;;;;0.00;0.00;;;16.90;99.90;;;;;;5091381;28;20182;-61
2023/08/04 05:59:02;;;;;;;0.00;0.00;;;17.00;99.90;;;;;;5091136;28;20184;-62
2023/08/04 06:01:28;;;;;;;0.00;0.00;;;17.00;99.90;;;;;;5091085;28;20211;-61
2023/08/04 06:03:54;;;;;;;0.00;0.00;;;17.10;99.90;;;;;;5091209;28;20183;-61
2023/08/04 06:06:20;;;;;;;0.00;0.00;;;17.10;99.90;;;;;;5091025;28;20571;-61
2023/08/04 06:08:46;;;;;;;0.00;0.00;;;17.00;99.90;;;;;;5091181;28;20192;-61
2023/08/04 06:11:12;;;;;;;0.00;0.00;;;17.00;99.90;;;;;;5090893;28;20239;-61
2023/08/04 06:13:38;;;;;;;0.00;0.00;;;17.10;99.90;;;;;;5091387;28;20172;-61
2023/08/04 06:16:03;;;;;;;0.00;0.00;;;17.10;99.90;;;;;;5095205;28;20180;-61
2023/08/04 06:18:29;;;;;;;0.00;0.00;;;17.10;99.90;;;;;;5095289;28;20502;-61
2023/08/04 06:20:54;;;;;;;0.00;0.00;;;17.20;99.90;;;;;;5095234;28;20217;-61
2023/08/04 06:23:20;;;;;;;0.00;0.00;;;17.30;99.90;;;;;;5095064;28;20276;-61
2023/08/04 06:25:46;;;;;;;0.00;0.00;;;17.40;99.90;;;;;;5095106;28;20204;-62
2023/08/04 06:28:11;;;;;;;0.00;0.00;;;17.60;99.90;;;;;;5094740;28;20267;-61
2023/08/04 06:30:37;;;;;;;0.00;0.00;;;17.60;99.90;;;;;;5095092;28;20183;-61
2023/08/04 06:33:02;;;;;;;0.00;0.00;;;17.60;99.90;;;;;;5094890;28;20173;-62
2023/08/04 06:35:28;;;;;;;0.00;0.00;;;17.70;99.90;;;;;;5094761;28;20182;-61
2023/08/04 06:37:53;;;;;;;0.00;0.00;;;18.20;99.90;;;;;;5094928;28;20176;-62
2023/08/04 06:40:19;;;;;;;0.00;0.00;;;18.50;99.90;;;;;;5094620;28;20233;-62
2023/08/04 06:42:44;;;;;;;0.00;0.00;;;18.70;99.90;;;;;;5094685;28;20207;-62
2023/08/04 06:45:10;;;;;;;0.00;0.00;;;18.80;99.90;;;;;;5094599;28;20210;-62
2023/08/04 06:47:36;;;;;;;0.00;0.00;;;18.80;99.90;;;;;;5095001;28;20179;-62
2023/08/04 06:50:03;;;;;;;0.00;0.00;;;18.90;99.90;;;;;;5094926;28;20168;-62
2023/08/04 06:52:30;;;;;;;0.00;0.00;;;18.90;99.90;;;;;;5094861;28;20184;-62
2023/08/04 06:54:56;;;;;;;0.00;0.00;;;18.90;99.90;;;;;;5095009;28;20180;-61
2023/08/04 06:57:21;;;;;;;0.00;0.00;;;19.00;99.90;;;;;;5094871;28;20176;-62
2023/08/04 06:59:47;;;;;;;0.00;0.00;;;19.00;99.90;;;;;;5094892;28;20271;-62
2023/08/04 07:02:12;;;;;;;0.00;0.00;;;19.10;99.90;;;;;;5094699;28;20219;-62
2023/08/04 07:04:38;;;;;;;0.00;0.00;;;19.20;99.90;;;;;;5094758;28;20172;-61
2023/08/04 07:07:04;;;;;;;0.00;0.00;;;19.30;99.90;;;;;;5094750;28;20188;-62
2023/08/04 07:09:29;;;;;;;0.00;0.00;;;19.40;99.90;;;;;;5094541;28;20233;-61
2023/08/04 07:11:55;;;;;;;0.00;0.00;;;19.50;99.90;;;;;;5094632;28;20207;-62
2023/08/04 07:14:21;;;;;;;0.00;0.00;;;19.70;99.90;;;;;;5094528;28;20177;-61
2023/08/04 07:16:46;;;;;;;0.00;0.00;;;19.60;99.90;;;;;;5094605;28;20777;-62
2023/08/04 07:19:13;;;;;;;0.00;0.00;;;19.60;99.90;;;;;;5094369;28;20177;-62
2023/08/04 07:21:38;;;;;;;0.00;0.00;;;19.80;99.90;;;;;;5094306;28;20208;-61
2023/08/04 07:24:04;;;;;;;0.00;0.00;;;19.90;99.90;;;;;;5094257;28;20176;-62
2023/08/04 07:26:31;;;;;;;0.00;0.00;;;19.70;99.90;;;;;;5094153;28;20671;-61
2023/08/04 07:28:58;;;;;;;0.00;0.00;;;19.70;99.90;;;;;;5094126;28;20216;-61
2023/08/04 07:31:23;;;;;;;0.00;0.00;;;19.60;99.90;;;;;;5094133;28;20237;-62
2023/08/04 07:33:50;;;;;;;0.00;0.00;;;19.50;99.90;;;;;;5094092;28;20200;-62
2023/08/04 07:36:15;;;;;;;0.00;0.00;;;19.40;99.90;;;;;;5094140;28;20540;-62
2023/08/04 07:38:41;;;;;;;0.00;0.00;;;19.40;99.90;;;;;;5094175;28;20172;-62
2023/08/04 07:41:07;;;;;;;0.00;0.00;;;19.50;99.90;;;;;;5093861;28;20212;-62
2023/08/04 07:43:32;;;;;;;0.00;0.00;;;19.60;99.90;;;;;;5094143;28;20190;-61
2023/08/04 07:45:58;;;;;;;0.00;0.00;;;19.70;99.90;;;;;;5093971;28;20198;-61
2023/08/04 07:48:23;;;;;;;0.00;0.00;;;19.80;99.90;;;;;;5081809;28;20184;-61
2023/08/04 07:50:51;;;;;;;0.00;0.00;;;19.70;99.90;;;;;;5073535;28;20173;-61
2023/08/04 07:53:17;;;;;;;0.00;0.00;;;19.70;99.90;;;;;;5088443;28;20179;-62
2023/08/04 07:55:53;;;;;;;0.00;0.00;;;19.70;99.90;;;;;;5093851;28;20248;-61
2023/08/04 07:58:19;;;;;;;0.00;0.00;;;19.70;99.90;;;;;;5093701;28;20544;-62
2023/08/04 08:00:44;;;;;;;0.00;0.00;;;19.70;99.90;;;;;;5093708;28;20168;-61
2023/08/04 08:03:10;;;;;;;0.00;0.00;;;19.80;99.90;;;;;;5093430;28;20227;-61
2023/08/04 08:05:35;;;;;;;0.00;0.00;;;19.80;99.90;;;;;;5093689;28;20191;-62
2023/08/04 08:08:01;;;;;;;0.00;0.00;;;19.80;99.90;;;;;;5093676;28;20258;-62
2023/08/04 08:10:27;;;;;;;0.00;0.00;;;19.80;99.90;;;;;;5093703;28;20183;-62
2023/08/04 08:12:53;;;;;;;0.00;0.00;;;19.90;99.90;;;;;;5093609;28;20164;-61
2023/08/04 08:15:19;;;;;;;0.00;0.00;;;20.00;99.90;;;;;;5093332;28;20257;-62
2023/08/04 08:17:45;;;;;;;0.00;0.00;;;20.10;99.90;;;;;;5093435;28;20180;-62
2023/08/04 08:20:11;;;;;;;0.00;0.00;;;20.10;99.90;;;;;;5093211;28;20176;-62
2023/08/04 08:22:36;;;;;;;0.00;0.00;;;20.20;99.90;;;;;;5093255;28;20230;-62
2023/08/04 08:25:02;;;;;;;0.00;0.00;;;20.30;99.90;;;;;;5093197;28;20194;-62
2023/08/04 08:27:28;;;;;;;0.17;0.10;;;20.30;99.90;;;;;;5092842;28;20271;-62
2023/08/04 08:29:55;;;;;;;0.00;0.00;;;20.20;99.90;;;;;;5093144;28;20188;-62
2023/08/04 08:32:20;;;;;;;0.00;0.00;;;20.10;99.90;;;;;;5092983;28;20579;-62
2023/08/04 08:34:46;;;;;;;0.00;0.00;;;20.00;99.90;;;;;;5093111;28;20194;-61
2023/08/04 08:37:12;;;;;;;0.00;0.00;;;19.90;99.90;;;;;;5092204;28;20717;-61
2023/08/04 08:39:37;;;;;;;0.00;0.00;;;19.70;99.90;;;;;;5092903;28;20179;-61
2023/08/04 08:42:03;;;;;;;0.00;0.00;;;19.60;99.90;;;;;;5092797;28;20212;-61
2023/08/04 08:44:29;;;;;;;0.00;0.00;;;19.40;99.90;;;;;;5092759;28;20274;-61
2023/08/04 08:46:54;;;;;;;0.00;0.00;;;19.20;99.90;;;;;;5092788;28;20184;-61
2023/08/04 08:49:27;;;;;;;0.00;0.00;;;18.90;99.90;;;;;;5092454;28;20219;-61
2023/08/04 08:51:54;;;;;;;0.00;0.00;;;18.80;99.90;;;;;;5092428;28;20639;-61
2023/08/04 08:54:20;;;;;;;0.00;0.00;;;18.80;99.90;;;;;;5092612;28;20229;-61
2023/08/04 08:56:46;;;;;;;0.00;0.00;;;18.80;99.90;;;;;;5092602;28;20225;-61
2023/08/04 08:59:12;;;;;;;0.00;0.00;;;18.80;99.90;;;;;;5092265;28;20259;-61
2023/08/04 09:01:38;;;;;;;0.00;0.00;;;18.90;99.90;;;;;;5092427;28;20745;-61
2023/08/04 09:04:04;;;;;;;0.00;0.00;;;19.10;99.90;;;;;;5092352;28;20187;-61
2023/08/04 09:06:30;;;;;;;0.00;0.00;;;19.40;99.90;;;;;;5092114;28;20537;-61
2023/08/04 09:08:58;;;;;;;0.00;0.00;;;19.80;99.90;;;;;;5092264;28;20176;-61
2023/08/04 09:11:24;;;;;;;0.00;0.00;;;20.10;99.90;;;;;;5092294;28;20191;-62
2023/08/04 09:13:50;;;;;;;0.00;0.00;;;20.40;99.90;;;;;;5092219;28;20534;-62
2023/08/04 09:16:15;;;;;;;0.00;0.00;;;20.50;99.90;;;;;;5092178;28;20176;-62
2023/08/04 09:18:42;;;;;;;0.00;0.00;;;20.70;99.90;;;;;;5092268;28;20226;-62
2023/08/04 09:21:08;;;;;;;0.03;0.03;;;20.90;99.90;;;;;;5091978;28;20183;-61
2023/08/04 09:23:52;;;;;;;0.00;0.00;;;21.10;99.90;;;;;;5092212;28;20176;-62
2023/08/04 09:26:18;;;;;;;0.00;0.00;;;21.60;99.90;;;;;;5092025;28;20255;-62
2023/08/04 09:28:44;;;;;;;0.00;0.00;;;21.80;99.90;;;;;;5092019;28;20232;-62
2023/08/04 09:31:12;;;;;;;0.00;0.00;;;21.70;99.90;;;;;;5091760;28;20187;-62
2023/08/04 09:33:41;;;;;;;0.00;0.00;;;21.80;99.90;;;;;;5092038;28;20176;-62
2023/08/04 09:36:07;;;;;;;0.00;0.00;;;22.00;99.90;;;;;;5091835;28;20175;-62
2023/08/04 09:38:35;;;;;;;0.00;0.00;;;22.10;99.90;;;;;;5091982;28;20180;-62
2023/08/04 09:41:07;;;;;;;0.00;0.00;;;22.10;99.90;;;;;;5091673;28;20727;-62
2023/08/04 09:43:33;;;;;;;0.00;0.00;;;22.20;99.90;;;;;;5091771;28;20227;-62
2023/08/04 09:46:04;;;;;;;0.00;0.00;;;22.70;99.90;;;;;;5091864;28;20599;-62
2023/08/04 09:48:30;;;;;;;0.00;0.00;;;23.30;99.90;;;;;;5077828;28;20193;-62
2023/08/04 09:51:14;;;;;;;0.00;0.00;;;24.10;99.90;;;;;;5073073;28;20538;-62
2023/08/04 09:53:46;;;;;;;0.00;0.00;;;24.50;99.90;;;;;;5091599;28;20651;-62
2023/08/04 09:56:13;;;;;;;0.00;0.00;;;24.70;99.90;;;;;;5091328;28;20183;-62
2023/08/04 09:58:41;;;;;;;0.00;0.00;;;24.90;99.90;;;;;;5091785;28;20563;-62
2023/08/04 10:01:07;;;;;;;0.00;0.00;;;24.70;99.90;;;;;;5091571;28;20172;-62
2023/08/04 10:03:34;;;;;;;0.00;0.00;;;24.70;99.90;;;;;;5091672;28;20190;-62
2023/08/04 10:06:01;;;;;;;0.00;0.00;;;24.80;99.90;;;;;;5091580;28;20168;-62
2023/08/04 10:08:31;;;;;;;0.00;0.00;;;24.80;99.90;;;;;;5091495;28;20176;-62
2023/08/04 10:10:58;;;;;;;0.00;0.00;;;24.80;99.20;;;;;;5091574;28;20172;-62
2023/08/04 10:13:26;;;;;;;0.00;0.00;;;24.70;99.30;;;;;;5091460;28;20541;-62
2023/08/04 10:15:54;;;;;;;0.20;0.20;;;24.80;99.50;;;;;;5091389;28;20206;-62
2023/08/04 10:18:19;;;;;;;0.00;0.00;;;24.90;99.50;;;;;;5091457;28;20179;-62
2023/08/04 10:20:45;;;;;;;0.00;0.00;;;25.10;98.50;;;;;;5091508;28;20168;-62
2023/08/04 10:23:13;;;;;;;0.00;0.00;;;25.10;97.30;;;;;;5091083;28;20564;-62
2023/08/04 10:25:56;;;;;;;0.00;0.00;;;25.00;97.70;;;;;;5091553;28;20527;-62
2023/08/04 10:28:22;;;;;;;0.00;0.00;;;24.80;97.50;;;;;;5091023;28;20249;-62
2023/08/04 10:31:02;;;;;;;0.00;0.00;;;24.70;97.90;;;;;;5091364;28;20184;-62
2023/08/04 10:33:28;;;;;;;0.00;0.00;;;24.60;97.90;;;;;;5091237;28;20176;-62
2023/08/04 10:36:10;;;;;;;0.00;0.00;;;24.50;97.90;;;;;;5091365;28;20179;-62
2023/08/04 10:38:46;;;;;;;0.00;0.00;;;24.20;98.00;;;;;;5091382;28;20175;-62
2023/08/04 10:41:12;;;;;;;0.00;0.00;;;23.90;98.70;;;;;;5090942;28;20260;-62
2023/08/04 10:43:39;;;;;;;0.00;0.00;;;23.70;99.00;;;;;;5091248;28;20301;-62
2023/08/04 10:46:14;;;;;;;0.00;0.00;;;23.70;99.60;;;;;;5091230;28;20543;-62
2023/08/04 10:48:42;;;;;;;0.00;0.00;;;23.60;99.90;;;;;;5091387;28;20216;-62
2023/08/04 10:51:08;;;;;;;0.00;0.00;;;23.70;99.90;;;;;;5087647;28;20185;-62
2023/08/04 10:53:34;;;;;;;0.00;0.00;;;23.80;99.80;;;;;;5088153;28;20191;-62
2023/08/04 10:56:00;;;;;;;0.00;0.00;;;23.70;99.50;;;;;;5091102;28;20176;-62
2023/08/04 10:58:27;;;;;;;0.00;0.00;;;23.70;99.90;;;;;;5091016;28;20184;-62
2023/08/04 11:00:54;;;;;;;0.00;0.00;;;23.70;99.90;;;;;;5094379;28;20176;-62
2023/08/04 11:03:25;;;;;;;0.00;0.00;;;23.70;99.90;;;;;;5094756;28;20219;-62
2023/08/04 11:05:52;;;;;;;0.00;0.00;;;23.50;99.90;;;;;;5094721;28;20180;-62
2023/08/04 11:08:22;;;;;;;0.00;0.00;;;23.40;99.90;;;;;;5094698;28;20176;-62
2023/08/04 11:10:49;;;;;;;0.00;0.00;;;23.30;99.90;;;;;;5094789;28;20211;-62
2023/08/04 11:13:19;;;;;;;0.00;0.00;;;23.20;99.90;;;;;;5094605;28;20672;-62
2023/08/04 11:15:47;;;;;;;0.00;0.00;;;23.30;99.90;;;;;;5094635;28;20179;-62
2023/08/04 11:18:29;;;;;;;0.00;0.00;;;23.50;99.90;;;;;;5094568;28;20250;-62
2023/08/04 11:20:54;;;;;;;0.00;0.00;;;24.00;99.90;;;;;;5094573;28;20192;-61
2023/08/04 11:23:25;;;;;;;0.00;0.00;;;24.30;99.10;;;;;;5094325;28;20236;-62
2023/08/04 11:25:50;;;;;;;0.00;0.00;;;24.80;98.10;;;;;;5094325;28;20207;-62
2023/08/04 11:28:19;;;;;;;0.00;0.00;;;25.10;97.60;;;;;;5094192;28;20252;-62
2023/08/04 11:30:44;;;;;;;0.05;0.03;;;25.30;97.50;;;;;;5094312;28;20670;-62
2023/08/04 11:33:10;;;;;;;0.08;0.08;;;25.50;97.60;;;;;;5094059;28;20207;-62
2023/08/04 11:35:35;;;;;;;0.00;0.00;;;25.70;97.00;;;;;;5094317;28;20270;-62
2023/08/04 11:38:01;;;;;;;0.00;0.00;;;26.00;96.70;;;;;;5094154;28;20264;-62
2023/08/04 11:40:27;;;;;;;0.00;0.00;;;26.30;96.70;;;;;;5093987;28;20578;-62
2023/08/04 11:42:56;;;;;;;0.00;0.00;;;26.70;95.90;;;;;;5094058;28;20212;-62
2023/08/04 11:45:22;;;;;;;0.00;0.00;;;27.10;94.70;;;;;;5093969;28;20218;-62
2023/08/04 11:47:47;;;;;;;0.00;0.00;;;27.20;93.30;;;;;;5094103;28;20686;-62
2023/08/04 11:50:16;;;;;;;0.00;0.00;;;27.20;93.10;;;;;;5093892;28;20669;-62
2023/08/04 11:52:45;;;;;;;0.10;0.10;;;27.00;92.50;;;;;;5093887;28;20180;-62
2023/08/04 11:55:11;;;;;;;0.00;0.00;;;26.80;93.50;;;;;;5093740;28;20225;-62
2023/08/04 11:57:50;;;;;;;0.00;0.00;;;26.50;93.50;;;;;;5093918;28;20176;-62
2023/08/04 12:00:16;;;;;;;0.00;0.00;;;26.50;93.30;;;;;;5093795;28;20186;-62
2023/08/04 12:02:58;;;;;;;0.00;0.00;;;26.60;93.20;;;;;;5093494;28;20216;-62
2023/08/04 12:05:30;;;;;;;0.00;0.00;;;26.50;93.40;;;;;;5093574;28;20184;-62
2023/08/04 12:07:56;;;;;;;0.00;0.00;;;26.80;93.10;;;;;;5093708;28;20184;-62
2023/08/04 12:10:23;;;;;;;0.00;0.00;;;27.10;92.30;;;;;;5091924;28;20251;-62
2023/08/04 12:12:50;;;;;;;0.00;0.00;;;27.00;91.80;;;;;;5092843;28;20176;-62
2023/08/04 12:15:15;;;;;;;0.00;0.00;;;26.60;91.90;;;;;;5093487;28;20658;-62
2023/08/04 12:17:42;;;;;;;0.00;0.00;;;25.80;93.00;;;;;;5093478;28;20184;-62
2023/08/04 12:20:12;;;;;;;0.00;0.00;;;25.50;93.60;;;;;;5093368;28;20636;-62
2023/08/04 12:22:40;;;;;;;0.00;0.00;;;25.20;93.90;;;;;;5091999;28;20235;-62
2023/08/04 12:25:06;;;;;;;0.00;0.00;;;25.00;94.40;;;;;;5093243;28;20179;-62
2023/08/04 12:27:31;;;;;;;0.00;0.00;;;24.80;94.80;;;;;;5092966;28;20180;-62
2023/08/04 12:29:57;;;;;;;0.00;0.00;;;24.80;95.40;;;;;;5093198;28;20182;-62
2023/08/04 12:32:23;;;;;;;0.00;0.00;;;24.60;94.90;;;;;;5093072;28;20218;-62
2023/08/04 12:34:48;;;;;;;0.00;0.00;;;24.30;94.30;;;;;;5093016;28;20179;-62
2023/08/04 12:37:14;;;;;;;0.00;0.00;;;24.10;95.30;;;;;;5093027;28;20179;-62
2023/08/04 12:39:40;;;;;;;0.00;0.00;;;23.90;96.60;;;;;;5093011;28;20671;-62
2023/08/04 12:42:06;;;;;;;0.00;0.00;;;23.80;96.40;;;;;;5092720;28;20212;-62
2023/08/04 12:44:32;;;;;;;0.00;0.00;;;23.70;96.70;;;;;;5092771;28;20176;-62